Terminal Aerodrome Forecast
Issued by NWS Birmingham, AL

Current Version | Previous Version | Text Only | Print | Product List | Glossary On
Versions: 1 2 3 4 5 6 7 8 9 10 11 12 13 14 15 16 17 18 19 20 21 22 23 24 25 26
000
FTUS44 KBMX 271739
TAFBHM
TAF
KBHM 271739Z 2718/2818 18005KT P6SM -SHRA VCTS BKN025 BKN035CB
     FM271900 16005KT P6SM -SHRA VCTS SCT025 BKN035CB
      TEMPO 2722/2802 2SM TSRA SCT015 BKN025CB
     FM280300 VRB03KT P6SM BKN100=

USA.gov is the U.S. government's official web portal to all federal, state and local government web resources and services.